Time;durP1;ratioP1;P1;durP2;ratioP2;P2;SDS_P1;SDS_P2;PMS_P1;PMS_P2;Temp;Humidity;BMP_temperature;BMP_pressure;BME280_temperature;BME280_humidity;BME280_pressure;Samples;Min_cycle;Max_cycle;Signal;HPM_P1;HPM_P2
2023/04/13 00:00:23;;;;;;;8.18;2.53;;;;;;;16.38;56.19;93241.50;5040209;28;20021;-88
2023/04/13 00:02:52;;;;;;;9.70;2.60;;;;;;;16.45;55.60;93233.78;5057856;28;20032;-87
2023/04/13 00:05:18;;;;;;;7.25;2.30;;;;;;;16.16;57.79;93234.81;5040508;28;20381;-88
2023/04/13 00:07:44;;;;;;;7.85;3.05;;;;;;;16.70;55.92;93232.97;5039875;28;20020;-88
2023/04/13 00:10:10;;;;;;;9.95;2.40;;;;;;;16.69;55.76;93211.06;5023335;28;20124;-88
2023/04/13 00:12:36;;;;;;;6.10;2.60;;;;;;;16.86;55.37;93212.69;5039923;28;20029;-88
2023/04/13 00:15:02;;;;;;;10.82;2.78;;;;;;;16.78;55.12;93211.69;5023536;28;20025;-88
2023/04/13 00:17:28;;;;;;;6.82;2.58;;;;;;;16.71;55.85;93211.50;5023420;28;20074;-88
2023/04/13 00:19:56;;;;;;;8.15;2.65;;;;;;;16.64;56.11;93211.28;5039688;28;20063;-89
2023/04/13 00:22:26;;;;;;;10.18;2.65;;;;;;;16.89;56.72;93213.88;5039946;28;20025;-89
2023/04/13 00:24:54;;;;;;;10.90;2.80;;;;;;;16.73;56.25;93217.22;5023470;28;20116;-88
2023/04/13 00:27:21;;;;;;;9.35;2.55;;;;;;;16.94;55.45;93206.47;5023560;28;20033;-88
2023/04/13 00:29:46;;;;;;;3.88;2.10;;;;;;;16.88;56.33;93205.19;5038737;28;20036;-88
2023/04/13 00:32:12;;;;;;;6.90;2.75;;;;;;;16.79;54.63;93196.59;5039514;28;20024;-88
2023/04/13 00:34:37;;;;;;;9.90;2.40;;;;;;;16.99;55.61;93205.50;5039529;28;20017;-89
2023/04/13 00:37:03;;;;;;;6.32;2.35;;;;;;;16.70;56.20;93209.97;5039325;28;20032;-88
2023/04/13 00:39:29;;;;;;;10.10;2.35;;;;;;;16.71;56.25;93200.13;5039389;28;20025;-88
2023/04/13 00:42:01;;;;;;;8.65;2.42;;;;;;;16.88;55.25;93209.69;5039781;28;20040;-88
2023/04/13 00:44:27;;;;;;;5.68;2.65;;;;;;;16.58;55.85;93213.41;5023143;28;20070;-88
2023/04/13 00:47:21;;;;;;;12.02;3.20;;;;;;;16.64;56.60;93206.00;5039455;28;20027;-88
2023/04/13 00:49:47;;;;;;;11.80;2.80;;;;;;;15.88;57.74;93206.34;5056871;28;20032;-88
2023/04/13 00:52:13;;;;;;;9.75;2.88;;;;;;;15.63;59.30;93208.94;5039246;28;20028;-88
2023/04/13 00:54:39;;;;;;;8.35;3.05;;;;;;;16.62;56.46;93197.63;5039500;28;20115;-89
2023/04/13 00:57:05;;;;;;;16.58;2.67;;;;;;;16.16;57.21;93192.53;5038806;28;20100;-89
2023/04/13 00:59:30;;;;;;;9.13;2.53;;;;;;;16.49;56.92;93197.66;5026530;28;20033;-90
2023/04/13 01:01:56;;;;;;;12.05;2.90;;;;;;;16.60;56.84;93189.25;5022406;28;20043;-89
2023/04/13 01:04:26;;;;;;;8.95;2.88;;;;;;;16.47;58.71;93186.63;5041049;28;20029;-90
2023/04/13 01:07:10;;;;;;;9.40;2.75;;;;;;;16.33;57.76;93180.94;5049814;28;20029;-89
2023/04/13 01:10:15;;;;;;;4.25;2.58;;;;;;;16.96;56.30;93174.41;5065892;28;20017;-90
2023/04/13 01:12:50;;;;;;;9.52;2.70;;;;;;;16.56;57.26;93170.66;4940463;29;20031;-88
2023/04/13 01:15:16;;;;;;;9.88;3.03;;;;;;;16.84;56.54;93169.16;4940777;29;20100;-89
2023/04/13 01:17:50;;;;;;;11.82;2.63;;;;;;;16.96;56.21;93174.41;4977722;28;20037;-89
2023/04/13 01:20:16;;;;;;;6.45;2.70;;;;;;;16.95;55.35;93178.16;5039089;28;20442;-89
2023/04/13 01:22:46;;;;;;;7.32;2.40;;;;;;;16.81;55.95;93168.72;5022637;28;20028;-89
2023/04/13 01:25:44;;;;;;;4.80;2.15;;;;;;;16.99;54.98;93163.16;5039072;28;20033;-89
2023/04/13 01:28:18;;;;;;;9.52;2.55;;;;;;;16.98;55.06;93150.25;5038932;28;20021;-89
2023/04/13 01:30:44;;;;;;;14.63;2.90;;;;;;;16.94;55.76;93139.59;5022598;28;20025;-89
2023/04/13 01:33:10;;;;;;;12.20;2.63;;;;;;;16.74;57.20;93142.06;5038757;28;20029;-88
2023/04/13 01:35:38;;;;;;;6.45;2.50;;;;;;;16.86;56.27;93154.50;5022431;28;20020;-88
2023/04/13 01:38:08;;;;;;;11.98;2.75;;;;;;;16.84;56.64;93148.00;5022983;28;20448;-89
2023/04/13 01:40:39;;;;;;;8.57;2.50;;;;;;;17.13;55.71;93148.78;5039351;28;20032;-88
2023/04/13 01:43:05;;;;;;;7.75;3.10;;;;;;;17.17;55.27;93147.00;5043504;28;20052;-88
2023/04/13 01:45:54;;;;;;;8.60;3.15;;;;;;;17.41;55.65;93155.91;5042675;28;20021;-88
2023/04/13 01:48:26;;;;;;;8.52;2.33;;;;;;;17.48;55.38;93148.91;5026850;28;20082;-89
2023/04/13 01:50:55;;;;;;;11.35;2.45;;;;;;;17.32;55.55;93156.06;5042501;28;20128;-89
2023/04/13 01:53:28;;;;;;;9.48;2.58;;;;;;;16.90;56.88;93151.94;5042215;28;20071;-89
2023/04/13 01:55:55;;;;;;;9.90;2.63;;;;;;;16.94;57.31;93150.16;5025846;28;20086;-88
2023/04/13 01:58:22;;;;;;;9.38;2.58;;;;;;;16.92;57.12;93139.13;5042207;28;20025;-88
2023/04/13 02:00:47;;;;;;;14.25;3.08;;;;;;;16.94;57.51;93129.75;5042448;28;20021;-88
2023/04/13 02:03:14;;;;;;;12.10;2.72;;;;;;;17.14;56.93;93126.50;5042398;28;20074;-89
2023/04/13 02:05:39;;;;;;;6.72;2.47;;;;;;;16.81;58.04;93144.13;5042462;28;20025;-88
2023/04/13 02:08:09;;;;;;;7.35;2.70;;;;;;;16.86;58.58;93154.50;5042180;28;20044;-89
2023/04/13 02:10:36;;;;;;;10.38;2.33;;;;;;;17.18;57.53;93144.00;5025774;28;20047;-89
2023/04/13 02:13:02;;;;;;;8.73;2.30;;;;;;;16.88;58.60;93139.06;5041935;28;20496;-89
2023/04/13 02:15:28;;;;;;;9.55;2.10;;;;;;;16.89;57.93;93137.16;5059906;28;20376;-88
2023/04/13 02:17:54;;;;;;;8.40;2.13;;;;;;;16.60;58.25;93136.38;5025535;28;20025;-88
2023/04/13 02:20:19;;;;;;;10.25;2.30;;;;;;;16.97;57.97;93130.97;5042015;28;20025;-88
2023/04/13 02:22:45;;;;;;;9.07;2.72;;;;;;;16.94;58.76;93126.34;5041881;28;20025;-88
2023/04/13 02:25:11;;;;;;;11.10;2.97;;;;;;;17.02;56.96;93125.44;5025640;28;20021;-89
2023/04/13 02:27:40;;;;;;;6.88;2.13;;;;;;;17.15;56.59;93126.19;5025577;28;20028;-89
2023/04/13 02:30:07;;;;;;;6.30;2.53;;;;;;;16.69;61.30;93110.56;5025466;28;20124;-88
2023/04/13 02:32:34;;;;;;;12.30;2.80;;;;;;;16.74;59.22;93104.28;5041638;28;20057;-89
2023/04/13 02:35:00;;;;;;;8.70;2.33;;;;;;;16.87;57.95;93091.75;5041536;28;20021;-88
2023/04/13 02:37:28;;;;;;;5.88;1.70;;;;;;;16.60;58.53;93094.06;5041775;28;20021;-89
2023/04/13 02:39:54;;;;;;;4.47;1.60;;;;;;;16.78;57.16;93097.22;5041858;28;20059;-88
2023/04/13 02:42:20;;;;;;;10.38;1.85;;;;;;;16.31;58.16;93088.78;5024970;28;20029;-88
2023/04/13 02:44:46;;;;;;;3.17;1.60;;;;;;;16.57;57.36;93084.97;5041652;28;20316;-88
2023/04/13 02:47:11;;;;;;;8.95;1.73;;;;;;;16.29;57.96;93077.78;5041657;28;20028;-89
2023/04/13 02:49:36;;;;;;;8.43;1.75;;;;;;;15.57;60.09;93065.84;5028106;28;20128;-88
2023/04/13 02:52:02;;;;;;;10.57;1.83;;;;;;;16.06;58.84;93054.47;5060700;28;20069;-89
2023/04/13 02:54:28;;;;;;;3.67;1.60;;;;;;;16.45;58.09;93061.22;5078701;28;20081;-89
2023/04/13 02:56:54;;;;;;;5.18;1.42;;;;;;;16.02;58.67;93055.47;5061387;28;20024;-89
2023/04/13 02:59:21;;;;;;;4.38;1.42;;;;;;;15.92;59.00;93056.72;5061586;28;20434;-89
2023/04/13 03:01:47;;;;;;;4.70;1.50;;;;;;;16.52;59.07;93050.81;5061622;28;20119;-89
2023/04/13 03:04:13;;;;;;;5.80;1.60;;;;;;;16.64;57.78;93052.63;5061097;28;20025;-88
2023/04/13 03:06:44;;;;;;;12.35;1.85;;;;;;;16.93;56.89;93048.09;5044520;28;20040;-89
2023/04/13 03:09:10;;;;;;;3.58;1.42;;;;;;;16.71;58.13;93055.47;5060794;28;20029;-89
2023/04/13 03:11:36;;;;;;;9.38;1.58;;;;;;;16.94;56.66;93047.75;5061150;28;20021;-88
2023/04/13 03:14:01;;;;;;;8.02;2.17;;;;;;;16.49;58.77;93044.31;5061308;28;20035;-89
2023/04/13 03:16:27;;;;;;;9.75;1.60;;;;;;;16.62;57.62;93044.25;5060904;28;20111;-89
2023/04/13 03:18:53;;;;;;;14.38;1.90;;;;;;;15.93;60.52;93042.41;5060706;28;20104;-89
2023/04/13 03:21:19;;;;;;;8.90;2.03;;;;;;;16.23;60.01;93040.25;5044164;28;20120;-88
2023/04/13 03:23:44;;;;;;;6.45;2.00;;;;;;;16.53;58.90;93045.19;5060912;28;20027;-89
2023/04/13 03:26:10;;;;;;;7.28;1.85;;;;;;;16.37;58.87;93026.63;5078570;28;20433;-88
2023/04/13 03:28:35;;;;;;;7.72;1.85;;;;;;;16.77;57.92;93024.25;5078401;28;20016;-89
2023/04/13 03:31:01;;;;;;;6.97;1.83;;;;;;;16.64;57.44;93021.69;5060708;28;20024;-87
2023/04/13 03:33:29;;;;;;;12.15;2.22;;;;;;;16.31;58.64;93022.72;5060899;28;20059;-88
2023/04/13 03:35:55;;;;;;;12.95;2.28;;;;;;;16.26;59.20;93012.34;5060549;28;20408;-88
2023/04/13 03:38:20;;;;;;;9.05;1.77;;;;;;;16.17;59.90;93015.16;5042628;28;20111;-87
2023/04/13 03:40:45;;;;;;;12.10;2.28;;;;;;;15.66;61.49;93005.00;5033894;28;20033;-89
2023/04/13 03:43:11;;;;;;;7.35;1.83;;;;;;;14.66;66.52;93004.16;5024324;28;20500;-87
2023/04/13 03:45:36;;;;;;;7.60;2.28;;;;;;;15.12;65.43;93002.28;5028796;28;20036;-88
2023/04/13 03:48:02;;;;;;;9.70;2.30;;;;;;;15.45;63.80;92989.28;5052866;28;20032;-87
2023/04/13 03:50:27;;;;;;;16.42;2.38;;;;;;;15.49;64.09;92995.44;5043755;28;20031;-88
2023/04/13 03:52:53;;;;;;;10.20;2.20;;;;;;;15.13;65.05;93000.41;5043802;28;20077;-88
2023/04/13 03:55:18;;;;;;;15.45;2.20;;;;;;;15.72;63.20;92992.34;5043743;28;20306;-87
2023/04/13 03:57:44;;;;;;;14.68;2.38;;;;;;;15.58;63.46;92995.34;5042081;28;20036;-88
2023/04/13 04:00:12;;;;;;;13.88;2.50;;;;;;;15.67;63.73;93009.97;5060035;28;20433;-89
2023/04/13 04:02:38;;;;;;;9.68;2.10;;;;;;;15.69;63.02;93007.75;5060048;28;20107;-88
2023/04/13 04:05:04;;;;;;;8.18;1.85;;;;;;;15.41;63.67;93005.00;5059973;28;20048;-88
2023/04/13 04:07:30;;;;;;;10.25;1.95;;;;;;;15.79;61.95;93006.53;5077689;28;20024;-88
2023/04/13 04:09:55;;;;;;;10.25;2.03;;;;;;;15.97;61.13;92999.13;5060016;28;20033;-88
2023/04/13 04:12:21;;;;;;;7.22;1.85;;;;;;;15.77;61.70;92997.38;5043331;28;20456;-88
2023/04/13 04:14:46;;;;;;;16.38;1.83;;;;;;;15.93;61.22;92994.84;5077850;28;20127;-88
2023/04/13 04:17:11;;;;;;;7.85;1.92;;;;;;;15.93;61.23;93000.13;5043241;28;20034;-88
2023/04/13 04:19:37;;;;;;;5.22;1.40;;;;;;;15.97;60.51;92993.06;5043192;28;20028;-88
2023/04/13 04:22:05;;;;;;;9.38;2.10;;;;;;;15.91;61.15;92991.78;5043251;28;20422;-88
2023/04/13 04:24:31;;;;;;;10.80;2.03;;;;;;;15.96;60.65;92983.63;5060085;28;20032;-88
2023/04/13 04:26:57;;;;;;;4.70;1.70;;;;;;;16.01;60.32;92991.31;5059661;28;20028;-88
2023/04/13 04:29:47;;;;;;;9.98;2.45;;;;;;;15.93;60.84;92998.28;5043045;28;20028;-88
2023/04/13 04:32:09;;;;;;;7.93;1.83;;;;;;;15.76;61.54;92995.84;5061896;28;20028;-88
2023/04/13 04:34:35;;;;;;;8.10;2.25;;;;;;;15.59;63.41;92988.97;5043071;28;20050;-88
2023/04/13 04:37:05;;;;;;;7.63;1.70;;;;;;;15.51;64.54;92995.91;5059427;28;20035;-88
2023/04/13 04:39:33;;;;;;;6.78;1.90;;;;;;;15.66;64.10;92997.88;5060312;28;20392;-87
2023/04/13 04:42:02;;;;;;;6.68;2.17;;;;;;;15.54;63.70;92997.88;5055838;28;20047;-88
2023/04/13 04:44:31;;;;;;;9.50;2.55;;;;;;;15.32;65.57;93009.66;5057288;28;20047;-86
2023/04/13 04:47:01;;;;;;;6.93;1.77;;;;;;;15.96;62.63;93000.25;5069972;28;20085;-89
2023/04/13 04:49:27;;;;;;;5.35;1.90;;;;;;;16.29;61.03;93009.06;5043280;28;20119;-88
2023/04/13 04:51:54;;;;;;;12.48;1.80;;;;;;;16.41;61.35;93010.88;5059229;28;20124;-88
2023/04/13 04:54:20;;;;;;;11.35;2.50;;;;;;;16.11;61.53;93005.94;5059072;28;20032;-87
2023/04/13 04:56:46;;;;;;;12.98;2.40;;;;;;;16.05;61.22;93004.59;5042483;28;20042;-88
2023/04/13 04:59:12;;;;;;;10.02;2.15;;;;;;;15.91;62.13;93018.94;5042520;28;20035;-88
2023/04/13 05:01:38;;;;;;;11.07;2.05;;;;;;;16.19;61.61;93022.75;5042299;28;20036;-89
2023/04/13 05:04:04;;;;;;;14.13;2.05;;;;;;;16.09;62.46;93037.97;5059063;28;20115;-89
2023/04/13 05:06:32;;;;;;;14.52;1.92;;;;;;;16.08;64.46;93035.66;5076930;28;20043;-89
2023/04/13 05:08:58;;;;;;;9.02;2.05;;;;;;;16.02;64.93;93048.34;5059183;28;20031;-89
2023/04/13 05:11:25;;;;;;;7.95;1.70;;;;;;;16.28;62.37;93054.31;5059012;28;20089;-88
2023/04/13 05:13:51;;;;;;;7.88;2.10;;;;;;;16.59;60.00;93045.72;5076615;28;20024;-88
2023/04/13 05:16:16;;;;;;;9.65;1.85;;;;;;;16.63;60.38;93051.88;5041852;28;20036;-88
2023/04/13 05:18:46;;;;;;;6.60;1.77;;;;;;;17.12;59.20;93050.09;5029095;28;20330;-88
2023/04/13 05:21:13;;;;;;;7.40;2.35;;;;;;;16.95;58.98;93051.19;5045720;28;20024;-89
2023/04/13 05:23:39;;;;;;;15.60;1.90;;;;;;;16.95;58.97;93054.56;5045383;28;20031;-88
2023/04/13 05:26:05;;;;;;;6.95;2.10;;;;;;;16.99;61.09;93060.00;5029103;28;20426;-88
2023/04/13 05:28:33;;;;;;;8.02;1.77;;;;;;;17.20;59.68;93054.47;5045560;28;20441;-88
2023/04/13 05:31:02;;;;;;;7.15;1.67;;;;;;;16.56;61.09;93064.13;5058857;28;20323;-87
2023/04/13 05:33:28;;;;;;;8.48;1.60;;;;;;;16.39;61.67;93058.03;5065511;28;20028;-87
2023/04/13 05:35:53;;;;;;;8.82;1.40;;;;;;;16.02;62.77;93066.81;5083620;28;20032;-87
2023/04/13 05:38:19;;;;;;;7.25;1.98;;;;;;;16.42;61.39;93064.50;5051290;28;20487;-87
2023/04/13 05:40:44;;;;;;;6.75;1.70;;;;;;;15.41;68.86;93050.66;5045391;28;20028;-87
2023/04/13 05:43:12;;;;;;;5.15;1.58;;;;;;;15.50;70.63;93060.34;5045482;28;20116;-88
2023/04/13 05:45:37;;;;;;;3.90;1.30;;;;;;;15.38;71.32;93059.25;5029296;28;20043;-88
2023/04/13 05:48:03;;;;;;;3.03;1.33;;;;;;;15.31;76.86;93051.09;5045298;28;20194;-88
2023/04/13 05:50:29;;;;;;;4.40;0.93;;;;;;;14.57;83.67;93049.81;5062786;28;20024;-88
2023/04/13 05:52:56;;;;;;;3.28;1.23;;;;;;;14.98;82.17;93042.13;5028956;28;20128;-89
2023/04/13 05:55:22;;;;;;;2.38;0.68;;;;;;;14.57;85.61;93046.44;5028924;28;20033;-89
2023/04/13 05:57:48;;;;;;;2.20;0.80;;;;;;;15.69;73.92;93057.13;5045139;28;20031;-89
2023/04/13 06:00:15;;;;;;;5.32;0.85;;;;;;;14.16;84.40;93053.28;5045126;28;20413;-89
2023/04/13 06:02:42;;;;;;;4.05;0.90;;;;;;;14.02;85.69;93056.94;5063111;28;20111;-89
2023/04/13 06:05:08;;;;;;;3.50;0.73;;;;;;;14.34;86.14;93061.78;5028978;28;20331;-89
2023/04/13 06:07:34;;;;;;;1.58;0.70;;;;;;;13.99;86.66;93066.22;5045200;28;20071;-89
2023/04/13 06:10:00;;;;;;;2.55;0.85;;;;;;;14.68;81.66;93054.69;5062791;28;20032;-88
2023/04/13 06:12:26;;;;;;;3.17;1.00;;;;;;;15.21;79.90;93054.19;5049591;28;20330;-88
2023/04/13 06:14:51;;;;;;;3.03;0.60;;;;;;;13.99;85.47;93050.44;5065128;28;20031;-88
2023/04/13 06:17:17;;;;;;;1.80;0.68;;;;;;;14.44;85.22;93053.50;5048588;28;20032;-88
2023/04/13 06:19:42;;;;;;;1.23;0.68;;;;;;;14.97;82.11;93048.50;5082862;28;20034;-88
2023/04/13 06:22:08;;;;;;;2.35;0.70;;;;;;;15.09;81.67;93054.91;5065169;28;20071;-88
2023/04/13 06:24:33;;;;;;;3.75;0.68;;;;;;;14.34;88.45;93067.84;5048537;28;20030;-88
2023/04/13 06:26:59;;;;;;;1.85;0.65;;;;;;;14.65;83.34;93060.63;5064202;28;20043;-88
2023/04/13 06:29:24;;;;;;;2.33;0.70;;;;;;;15.55;74.69;93062.75;5061723;28;20078;-88
2023/04/13 06:31:49;;;;;;;2.58;0.50;;;;;;;15.11;77.07;93056.13;5045423;28;20040;-89
2023/04/13 06:34:15;;;;;;;0.63;0.50;;;;;;;15.35;77.44;93044.06;5045333;28;20123;-87
2023/04/13 06:36:40;;;;;;;1.75;0.60;;;;;;;16.04;71.98;93048.75;5041737;28;20029;-87
2023/04/13 06:39:07;;;;;;;0.88;0.47;;;;;;;15.26;81.99;93043.41;5041730;28;20029;-88
2023/04/13 06:41:32;;;;;;;2.10;0.60;;;;;;;14.86;78.62;93057.19;5025730;28;20465;-89
2023/04/13 06:43:58;;;;;;;1.55;0.50;;;;;;;15.63;74.55;93051.31;5041637;28;20063;-87
2023/04/13 06:46:23;;;;;;;3.40;0.75;;;;;;;15.68;78.70;93055.59;5041695;28;20029;-88
2023/04/13 06:48:49;;;;;;;3.53;0.82;;;;;;;15.88;81.06;93058.44;5041432;28;20049;-88
2023/04/13 06:51:14;;;;;;;2.25;0.70;;;;;;;15.87;76.39;93047.09;5025249;28;20072;-88
2023/04/13 06:53:40;;;;;;;1.65;0.57;;;;;;;15.84;77.80;93045.13;5041434;28;20076;-88
2023/04/13 06:56:05;;;;;;;1.92;0.82;;;;;;;15.69;81.33;93033.38;5041367;28;20120;-88
2023/04/13 06:58:31;;;;;;;5.97;0.90;;;;;;;15.32;100.00;93050.00;5041041;28;20033;-88
2023/04/13 07:00:56;;;;;;;3.00;0.75;;;;;;;15.77;98.62;93052.84;5041380;28;20092;-88
2023/04/13 07:03:22;;;;;;;2.38;0.88;;;;;;;15.49;96.48;93048.22;5059066;28;20024;-88
2023/04/13 07:05:47;;;;;;;2.47;0.80;;;;;;;15.00;100.00;93051.63;5041202;28;20139;-88
2023/04/13 07:08:13;;;;;;;3.58;1.30;;;;;;;14.74;100.00;93044.75;5040759;28;20025;-88
2023/04/13 07:10:39;;;;;;;3.60;1.45;;;;;;;14.80;100.00;93043.44;5025054;28;20029;-88
2023/04/13 07:13:05;;;;;;;5.32;1.92;;;;;;;15.12;100.00;93039.22;5040939;28;20323;-88
2023/04/13 07:15:31;;;;;;;5.97;1.48;;;;;;;15.59;100.00;93025.91;5041182;28;20127;-88
2023/04/13 07:17:56;;;;;;;7.05;1.60;;;;;;;15.59;100.00;93033.84;5040788;28;20441;-88
2023/04/13 07:20:22;;;;;;;4.90;2.10;;;;;;;16.04;100.00;93021.56;5040984;28;20111;-89
2023/04/13 07:22:47;;;;;;;6.82;1.92;;;;;;;16.29;100.00;93018.84;5024265;28;20067;-88
2023/04/13 07:25:12;;;;;;;4.43;2.60;;;;;;;16.05;100.00;93029.16;5040850;28;20036;-89
2023/04/13 07:27:39;;;;;;;8.55;2.60;;;;;;;16.18;100.00;93026.50;5058511;28;20048;-88
2023/04/13 07:30:05;;;;;;;4.57;2.25;;;;;;;15.91;99.74;93012.91;5058517;28;20330;-88
2023/04/13 07:32:30;;;;;;;5.18;2.95;;;;;;;15.71;100.00;93004.00;5024629;28;20083;-88
2023/04/13 07:35:00;;;;;;;5.53;2.55;;;;;;;15.33;100.00;92998.75;5024388;28;20029;-88
2023/04/13 07:37:25;;;;;;;9.45;2.72;;;;;;;16.18;100.00;93008.75;5040623;28;20025;-89
2023/04/13 07:39:50;;;;;;;4.53;2.15;;;;;;;15.92;100.00;93020.50;5023721;28;20091;-88
2023/04/13 07:42:16;;;;;;;3.92;2.17;;;;;;;16.39;100.00;93015.75;5024197;28;20144;-88
2023/04/13 07:44:41;;;;;;;5.95;2.67;;;;;;;16.09;94.20;92992.28;5024244;28;20087;-88
2023/04/13 07:47:07;;;;;;;6.22;2.17;;;;;;;16.29;99.05;92990.56;5040735;28;20029;-88
2023/04/13 07:49:32;;;;;;;3.60;2.08;;;;;;;16.69;99.03;92986.28;5023942;28;20025;-89
2023/04/13 07:51:59;;;;;;;4.28;1.60;;;;;;;16.48;97.23;92989.91;5023702;28;20028;-88
2023/04/13 07:54:24;;;;;;;3.05;1.30;;;;;;;16.80;92.28;92981.25;5040449;28;20025;-88
2023/04/13 07:56:49;;;;;;;4.13;1.40;;;;;;;17.08;85.79;92967.22;5023955;28;20327;-89
2023/04/13 07:59:15;;;;;;;1.30;0.68;;;;;;;17.29;80.75;92972.22;5040027;28;20029;-88
2023/04/13 08:01:40;;;;;;;2.55;1.00;;;;;;;17.49;78.66;92972.28;5023850;28;20029;-89
2023/04/13 08:04:06;;;;;;;1.88;0.90;;;;;;;17.62;81.21;92960.47;5040117;28;20037;-88
2023/04/13 08:06:32;;;;;;;1.20;0.60;;;;;;;17.47;84.36;92958.63;5040016;28;20032;-87
2023/04/13 08:08:57;;;;;;;1.75;0.80;;;;;;;17.54;72.10;92950.84;5039826;28;20033;-88
2023/04/13 08:11:22;;;;;;;1.00;0.60;;;;;;;16.75;76.98;92932.03;5056514;28;20036;-88
2023/04/13 08:13:48;;;;;;;2.03;0.70;;;;;;;16.35;75.07;92930.28;5057678;28;20025;-87
2023/04/13 08:16:14;;;;;;;2.47;0.90;;;;;;;17.15;76.01;92933.00;5023624;28;20083;-88
2023/04/13 08:18:40;;;;;;;3.70;1.10;;;;;;;16.93;87.08;92926.41;5039666;28;20124;-88
2023/04/13 08:21:14;;;;;;;1.05;0.70;;;;;;;17.79;92.33;92921.47;5023235;28;20505;-88
2023/04/13 08:23:42;;;;;;;3.30;0.88;;;;;;;17.47;82.80;92908.31;5024114;28;20342;-87
2023/04/13 08:26:16;;;;;;;4.53;1.02;;;;;;;17.85;82.83;92901.53;5023059;28;20033;-88
2023/04/13 08:28:41;;;;;;;7.18;1.08;;;;;;;17.59;84.97;92889.66;5039600;28;20087;-88
2023/04/13 08:31:07;;;;;;;3.55;1.20;;;;;;;17.74;83.51;92882.78;5039642;28;20029;-88
2023/04/13 08:33:33;;;;;;;4.63;1.25;;;;;;;17.85;87.63;92882.19;5023274;28;20434;-88
2023/04/13 08:35:58;;;;;;;17.17;1.48;;;;;;;17.57;74.67;92886.59;5023245;28;20125;-89
2023/04/13 08:38:23;;;;;;;2.08;0.93;;;;;;;17.42;68.96;92898.00;5022991;28;20442;-89
2023/04/13 08:40:49;;;;;;;1.55;0.90;;;;;;;17.99;79.68;92892.31;5023202;28;20025;-89
2023/04/13 08:43:15;;;;;;;4.85;1.45;;;;;;;18.03;79.33;92890.53;5039444;28;20035;-88
2023/04/13 08:45:43;;;;;;;2.05;1.30;;;;;;;18.06;72.22;92885.28;5039297;28;20029;-89
2023/04/13 08:48:10;;;;;;;4.18;1.50;;;;;;;18.68;72.40;92899.59;5039387;28;20025;-88
2023/04/13 08:50:36;;;;;;;1.77;0.98;;;;;;;17.95;70.16;92900.97;5038632;28;20167;-88
2023/04/13 08:53:02;;;;;;;2.40;1.25;;;;;;;18.26;71.45;92887.16;5023015;28;20131;-87
2023/04/13 08:55:28;;;;;;;4.25;1.20;;;;;;;18.18;65.56;92884.38;5039356;28;20028;-89
2023/04/13 08:57:56;;;;;;;3.67;1.00;;;;;;;17.86;59.88;92895.09;5039214;28;20339;-88
2023/04/13 09:00:22;;;;;;;4.20;0.80;;;;;;;18.08;52.36;92877.75;5055980;28;20445;-87
2023/04/13 09:02:57;;;;;;;3.75;0.90;;;;;;;18.38;49.66;92871.09;5023061;28;20052;-88
2023/04/13 09:05:22;;;;;;;8.13;0.98;;;;;;;17.56;50.97;92890.38;5023623;28;20040;-87
2023/04/13 09:07:52;;;;;;;4.90;1.00;;;;;;;18.69;52.25;92871.97;5039004;28;20029;-88
2023/04/13 09:10:19;;;;;;;2.63;0.60;;;;;;;19.11;45.05;92891.56;5022887;28;20087;-88
2023/04/13 09:12:45;;;;;;;2.08;0.70;;;;;;;18.50;44.37;92894.75;5022837;28;20036;-88
2023/04/13 09:15:13;;;;;;;2.47;0.55;;;;;;;18.04;43.70;92887.53;5039128;28;20060;-88
2023/04/13 09:17:39;;;;;;;1.38;0.50;;;;;;;18.59;41.86;92893.75;5022884;28;20329;-89
2023/04/13 09:20:10;;;;;;;3.70;0.80;;;;;;;19.86;42.38;92898.19;5022355;28;20029;-88
2023/04/13 09:22:36;;;;;;;3.63;0.63;;;;;;;19.33;42.56;92897.19;5038838;28;20095;-88
2023/04/13 09:25:04;;;;;;;2.95;0.60;;;;;;;19.33;41.14;92883.91;5055545;28;20052;-89
2023/04/13 09:27:29;;;;;;;1.60;0.70;;;;;;;19.58;38.91;92878.13;5039153;28;20057;-90
2023/04/13 09:29:55;;;;;;;3.70;0.60;;;;;;;18.92;37.06;92887.06;5055510;28;20072;-89
2023/04/13 09:32:22;;;;;;;3.17;1.25;;;;;;;18.19;38.49;92887.78;5024413;28;20095;-88
2023/04/13 09:34:57;;;;;;;2.80;0.45;;;;;;;18.41;33.81;92898.75;5033464;28;20039;-88
2023/04/13 09:37:22;;;;;;;3.03;1.30;;;;;;;17.63;35.81;92893.13;5040401;28;20036;-89
2023/04/13 09:39:48;;;;;;;2.67;0.60;;;;;;;17.27;34.49;92873.09;5040142;28;20033;-88
2023/04/13 09:42:16;;;;;;;3.15;0.70;;;;;;;16.52;35.56;92887.69;5038791;28;20033;-89
2023/04/13 09:44:42;;;;;;;6.63;0.80;;;;;;;16.95;35.61;92897.75;5039349;28;20425;-89
2023/04/13 09:47:11;;;;;;;7.25;0.85;;;;;;;16.67;36.48;92874.81;5038728;28;20112;-88
2023/04/13 09:49:41;;;;;;;3.35;1.00;;;;;;;16.68;37.59;92884.28;5039188;28;20437;-89
2023/04/13 09:52:21;;;;;;;2.25;0.60;;;;;;;16.58;38.95;92890.84;5038699;28;20032;-88
2023/04/13 09:54:56;;;;;;;3.45;0.80;;;;;;;16.57;39.02;92880.59;5022291;28;20442;-88
2023/04/13 09:57:29;;;;;;;3.75;0.70;;;;;;;17.34;39.14;92902.38;5022219;28;20307;-89
2023/04/13 09:59:56;;;;;;;2.72;0.70;;;;;;;17.02;40.07;92897.16;5022189;28;20029;-88
2023/04/13 10:02:22;;;;;;;3.05;0.73;;;;;;;16.78;40.28;92888.28;5040320;28;20029;-88
2023/04/13 10:04:48;;;;;;;3.25;0.60;;;;;;;16.62;41.92;92899.63;5043198;28;20035;-89
2023/04/13 10:07:13;;;;;;;5.38;0.68;;;;;;;16.34;41.10;92892.53;5062342;28;20050;-88
2023/04/13 10:09:43;;;;;;;0.85;0.47;;;;;;;16.74;40.92;92905.94;5045661;28;20123;-88
2023/04/13 10:12:12;;;;;;;3.83;0.77;;;;;;;17.86;41.76;92937.50;5079938;28;20115;-88
2023/04/13 10:14:42;;;;;;;1.42;0.68;;;;;;;18.25;41.27;92909.47;5046210;28;20024;-88
2023/04/13 10:17:11;;;;;;;2.72;0.50;;;;;;;17.46;41.16;92909.44;5062329;28;20036;-88
2023/04/13 10:19:45;;;;;;;3.47;0.60;;;;;;;17.53;42.11;92909.59;5079340;28;20039;-88
2023/04/13 10:22:11;;;;;;;3.78;0.60;;;;;;;17.33;42.32;92892.91;5045258;28;20449;-89
2023/04/13 10:24:40;;;;;;;5.45;0.70;;;;;;;16.91;41.12;92895.00;5061703;28;20033;-88
2023/04/13 10:27:16;;;;;;;2.50;0.80;;;;;;;17.43;39.89;92902.97;5045388;28;20077;-88
2023/04/13 10:29:42;;;;;;;5.60;0.60;;;;;;;17.49;38.69;92877.75;5061669;28;20074;-89
2023/04/13 10:32:19;;;;;;;9.95;0.90;;;;;;;17.46;40.27;92853.84;5061843;28;20341;-88
2023/04/13 10:34:44;;;;;;;4.60;0.95;;;;;;;16.81;40.44;92848.69;5062466;28;20032;-94
2023/04/13 10:40:43;;;;;;;8.00;0.80;;;;;;;17.54;39.90;92871.41;5080069;28;20031;-93
2023/04/13 10:43:09;;;;;;;6.10;0.90;;;;;;;17.51;39.40;92867.56;5045873;28;20115;-94
2023/04/13 10:45:36;;;;;;;5.13;0.60;;;;;;;17.94;41.28;92851.75;5045618;28;20110;-93
2023/04/13 10:48:02;;;;;;;3.60;0.80;;;;;;;17.50;40.19;92828.19;5045860;28;20023;-94
2023/04/13 10:50:27;;;;;;;5.10;0.85;;;;;;;17.90;39.03;92837.66;5045727;28;20020;-93
2023/04/13 10:53:03;;;;;;;7.95;0.80;;;;;;;17.70;39.32;92833.50;5045409;28;20029;-94
2023/04/13 10:55:30;;;;;;;7.25;0.85;;;;;;;17.92;37.82;92853.97;5045619;28;20079;-94
2023/04/13 10:57:58;;;;;;;2.90;0.60;;;;;;;17.84;38.17;92854.97;5045233;28;20025;-93
2023/04/13 11:00:24;;;;;;;4.18;0.90;;;;;;;17.14;38.10;92840.72;5045440;28;20035;-94
2023/04/13 11:02:52;;;;;;;3.72;1.08;;;;;;;18.09;37.02;92844.84;5045477;28;20028;-93
2023/04/13 11:05:19;;;;;;;2.55;0.65;;;;;;;18.47;36.47;92839.03;5045132;28;20115;-94
2023/04/13 11:07:46;;;;;;;2.42;0.77;;;;;;;17.61;36.08;92860.19;5045244;28;20036;-93
2023/04/13 11:10:11;;;;;;;4.32;0.80;;;;;;;19.87;35.75;92860.63;5045087;28;20032;-93
2023/04/13 11:12:37;;;;;;;5.45;1.05;;;;;;;20.55;33.52;92846.50;5045182;28;20035;-92
2023/04/13 11:15:03;;;;;;;5.28;0.95;;;;;;;20.18;31.72;92842.75;5044226;28;20032;-93
2023/04/13 11:17:28;;;;;;;10.85;0.90;;;;;;;20.80;32.09;92834.50;5045469;28;20326;-93
2023/04/13 11:19:55;;;;;;;5.38;1.08;;;;;;;20.06;30.90;92819.06;5044908;28;20024;-93
2023/04/13 11:22:23;;;;;;;4.75;1.08;;;;;;;20.93;31.13;92811.06;5061521;28;20425;-93
2023/04/13 11:24:49;;;;;;;7.70;0.85;;;;;;;18.44;30.92;92843.13;5044345;28;20495;-89
2023/04/13 11:27:23;;;;;;;8.70;1.20;;;;;;;19.52;31.25;92819.25;5025256;28;20079;-88
2023/04/13 11:30:09;;;;;;;;;;;;;;;19.43;33.68;92792.97;5041179;28;20024;-89
2023/04/13 11:32:38;;;;;;;5.38;0.93;;;;;;;17.18;33.96;92796.56;5042008;28;19913;-87
2023/04/13 11:35:07;;;;;;;5.18;0.90;;;;;;;17.02;34.93;92807.22;5024806;28;20032;-92